createdAt,value
2018-02-04T00:00:43.814Z,11.60
2018-02-04T00:03:14.141Z,15.38
2018-02-04T00:05:46.163Z,15.36
2018-02-04T00:08:16.742Z,13.50
2018-02-04T00:10:47.647Z,14.80
2018-02-04T00:13:18.503Z,13.20
2018-02-04T00:15:49.439Z,16.33
2018-02-04T00:18:20.096Z,17.46
2018-02-04T00:20:50.618Z,14.82
2018-02-04T00:23:21.193Z,19.67
2018-02-04T00:25:51.991Z,22.95
2018-02-04T00:28:22.254Z,19.58
2018-02-04T00:30:53.158Z,23.60
2018-02-04T00:33:23.958Z,24.70
2018-02-04T00:35:55.411Z,29.00
2018-02-04T00:38:26.571Z,28.88
2018-02-04T00:40:57.923Z,27.24
2018-02-04T00:43:28.604Z,24.87
2018-02-04T00:45:58.427Z,23.80
2018-02-04T00:48:29.007Z,23.85
2018-02-04T00:51:00.302Z,23.84
2018-02-04T00:53:30.968Z,24.85
2018-02-04T00:56:02.322Z,22.70
2018-02-04T00:58:32.840Z,22.55
2018-02-04T02:38:02.699Z,17.45
2018-02-04T02:40:31.767Z,16.60
2018-02-04T02:43:00.827Z,16.50
2018-02-04T02:45:29.983Z,15.07
2018-02-04T02:47:58.935Z,16.83
2018-02-04T02:50:27.806Z,16.20
2018-02-04T02:52:56.570Z,14.70
2018-02-04T02:55:25.333Z,15.17
2018-02-04T02:57:54.087Z,15.47
2018-02-04T03:00:23.211Z,16.00
2018-02-04T03:02:52.311Z,16.05
2018-02-04T03:05:21.084Z,17.17
2018-02-04T03:07:49.923Z,16.83
2018-02-04T03:10:18.690Z,16.07
2018-02-04T03:12:47.663Z,15.50
2018-02-04T03:15:16.562Z,16.40
2018-02-04T03:17:45.327Z,15.70
2018-02-04T03:20:14.371Z,15.82
2018-02-04T03:22:43.191Z,16.13
2018-02-04T03:25:11.819Z,17.40
2018-02-04T03:27:40.591Z,17.23
2018-02-04T03:30:09.771Z,16.67
2018-02-04T03:32:38.563Z,15.97
2018-02-04T03:35:07.629Z,16.00
2018-02-04T03:37:36.552Z,16.63
2018-02-04T03:40:05.587Z,14.97
2018-02-04T03:42:34.587Z,15.93
2018-02-04T03:45:03.422Z,16.07
2018-02-04T03:47:32.488Z,15.82
2018-02-04T03:50:01.246Z,16.10
2018-02-04T03:52:30.533Z,16.52
2018-02-04T03:54:59.304Z,14.97
2018-02-04T03:57:28.097Z,15.57
2018-02-04T03:59:57.463Z,14.95
2018-02-04T04:02:26.438Z,15.13
2018-02-04T04:04:55.515Z,13.98
2018-02-04T04:07:24.631Z,13.30
2018-02-04T04:09:53.812Z,13.38
2018-02-04T04:12:22.955Z,12.43
2018-02-04T04:14:52.096Z,12.65
2018-02-04T04:17:21.167Z,12.13
2018-02-04T04:19:50.233Z,11.00
2018-02-04T04:22:19.338Z,11.90
2018-02-04T04:24:49.729Z,12.15
2018-02-04T04:27:19.591Z,11.95
2018-02-04T04:29:50.526Z,11.25
2018-02-04T04:32:21.602Z,10.93
2018-02-04T04:34:51.810Z,12.63
2018-02-04T04:37:22.011Z,11.15
2018-02-04T04:39:52.940Z,10.57
2018-02-04T04:42:24.374Z,10.96
2018-02-04T04:44:54.939Z,11.20
2018-02-04T04:47:26.303Z,10.20
2018-02-04T04:49:56.882Z,10.40
2018-02-04T04:52:28.286Z,9.56
2018-02-04T04:54:59.625Z,9.88
2018-02-04T04:57:30.474Z,9.02
2018-02-04T05:00:01.216Z,8.82
2018-02-04T05:02:32.704Z,9.58
2018-02-04T05:05:04.028Z,8.82
2018-02-04T05:07:34.649Z,9.32
2018-02-04T05:10:05.452Z,8.27
2018-02-04T05:12:36.705Z,8.40
2018-02-04T05:15:07.455Z,9.50
2018-02-04T05:17:38.716Z,9.10
2018-02-04T05:20:09.502Z,9.38
2018-02-04T05:22:40.366Z,8.95
2018-02-04T05:25:11.711Z,10.24
2018-02-04T05:27:42.975Z,9.22
2018-02-04T05:30:13.629Z,9.90
2018-02-04T05:32:43.862Z,9.57
2018-02-04T05:35:14.618Z,10.05
2018-02-04T05:37:45.244Z,10.18
2018-02-04T05:40:15.935Z,10.15
2018-02-04T05:42:47.311Z,11.34
2018-02-04T05:45:18.179Z,10.80
2018-02-04T05:47:48.359Z,9.77
2018-02-04T05:50:19.914Z,10.42
2018-02-04T05:52:51.599Z,10.04
2018-02-04T05:55:23.182Z,10.22
2018-02-04T05:57:53.601Z,10.50
2018-02-04T06:00:24.871Z,9.94
2018-02-04T06:02:55.412Z,11.12
2018-02-04T06:05:25.939Z,9.84
2018-02-04T06:07:56.871Z,10.36
2018-02-04T06:10:27.391Z,10.82
2018-02-04T06:12:57.173Z,11.05
2018-02-04T06:15:29.476Z,10.93
2018-02-04T06:17:59.289Z,11.02
2018-02-04T06:20:28.936Z,10.25
2018-02-04T06:22:59.413Z,10.30
2018-02-04T06:25:30.236Z,11.07
2018-02-04T06:28:00.584Z,11.00
2018-02-04T06:30:31.379Z,10.45
2018-02-04T06:33:03.271Z,11.22
2018-02-04T06:35:32.943Z,11.02
2018-02-04T06:38:03.721Z,11.52
2018-02-04T06:40:34.548Z,11.27
2018-02-04T06:43:05.517Z,11.70
2018-02-04T06:45:36.794Z,10.78
2018-02-04T06:48:07.655Z,11.52
2018-02-04T06:50:38.458Z,11.70
2018-02-04T06:53:08.927Z,11.80
2018-02-04T06:55:39.689Z,10.70
2018-02-04T06:58:10.912Z,10.48
2018-02-04T07:00:42.412Z,10.78
2018-02-04T07:03:12.968Z,10.63
2018-02-04T07:05:43.758Z,10.90
2018-02-04T07:08:14.686Z,10.43
2018-02-04T07:10:44.475Z,10.35
2018-02-04T07:13:15.038Z,10.20
2018-02-04T07:15:46.708Z,9.50
2018-02-04T07:18:17.586Z,9.45
2018-02-04T07:20:48.951Z,9.70
2018-02-04T07:23:19.844Z,8.23
2018-02-04T07:25:50.639Z,9.15
2018-02-04T07:28:21.240Z,9.20
2018-02-04T07:30:52.655Z,9.10
2018-02-04T07:33:23.519Z,8.82
2018-02-04T07:35:54.351Z,9.65
2018-02-04T07:38:25.732Z,9.54
2018-02-04T07:40:56.284Z,10.88
2018-02-04T07:43:27.166Z,10.07
2018-02-04T07:45:57.349Z,10.07
2018-02-04T07:48:28.776Z,9.36
2018-02-04T07:50:59.596Z,10.10
2018-02-04T07:53:30.455Z,10.00
2018-02-04T07:56:01.679Z,9.30
2018-02-04T07:58:32.771Z,10.05
2018-02-04T08:01:03.803Z,10.68
2018-02-04T08:03:34.679Z,10.00
2018-02-04T08:06:05.127Z,10.14
2018-02-04T08:08:35.774Z,10.90
2018-02-04T08:11:06.581Z,9.43
2018-02-04T08:13:37.523Z,10.73
2018-02-04T08:16:08.350Z,9.20
2018-02-04T08:18:39.775Z,10.10
2018-02-04T08:21:10.552Z,9.40
2018-02-04T08:23:41.035Z,9.22
2018-02-04T08:26:11.625Z,8.65
2018-02-04T08:28:42.477Z,9.63
2018-02-04T08:31:12.740Z,8.80
2018-02-04T08:33:43.639Z,9.05
2018-02-04T08:36:14.071Z,8.28
2018-02-04T08:38:44.775Z,7.70
2018-02-04T08:41:15.597Z,8.30
2018-02-04T08:43:46.596Z,8.40
2018-02-04T08:46:17.058Z,7.98
2018-02-04T08:48:47.755Z,8.93
2018-02-04T08:51:18.269Z,8.08
2018-02-04T08:53:48.629Z,7.53
2018-02-04T08:56:19.477Z,7.80
2018-02-04T08:58:50.436Z,9.82
2018-02-04T09:01:22.035Z,8.48
2018-02-04T09:03:52.754Z,8.63
2018-02-04T09:06:24.676Z,7.37
2018-02-04T09:08:55.200Z,8.42
2018-02-04T09:11:25.548Z,9.13
2018-02-04T09:13:56.100Z,10.38
2018-02-04T09:16:26.687Z,9.57
2018-02-04T09:18:57.508Z,9.73
2018-02-04T09:21:28.345Z,9.48
2018-02-04T09:23:59.887Z,10.38
2018-02-04T09:26:30.744Z,10.65
2018-02-04T09:29:01.963Z,10.65
2018-02-04T09:31:32.644Z,15.77
2018-02-04T09:34:03.487Z,10.48
2018-02-04T09:36:34.332Z,10.27
2018-02-04T09:39:05.291Z,9.26
2018-02-04T09:41:36.709Z,9.02
2018-02-04T09:44:06.553Z,9.20
2018-02-04T09:46:37.126Z,9.82
2018-02-04T09:49:08.152Z,9.40
2018-02-04T09:51:38.996Z,7.45
2018-02-04T09:54:10.266Z,8.94
2018-02-04T09:56:40.665Z,8.38
2018-02-04T09:59:11.172Z,8.45
2018-02-04T10:01:41.924Z,8.75
2018-02-04T10:04:13.387Z,8.04
2018-02-04T10:06:43.872Z,9.10
2018-02-04T10:09:14.436Z,8.15
2018-02-04T10:11:45.818Z,9.34
2018-02-04T10:14:16.460Z,9.20
2018-02-04T10:16:46.991Z,9.52
2018-02-04T10:19:17.914Z,9.73
2018-02-04T10:21:49.260Z,9.34
2018-02-04T10:24:20.571Z,9.96
2018-02-04T10:26:51.070Z,10.15
2018-02-04T10:29:22.187Z,11.05
2018-02-04T10:31:52.811Z,11.55
2018-02-04T10:34:24.262Z,11.52
2018-02-04T10:36:54.891Z,12.15
2018-02-04T10:39:26.508Z,10.20
2018-02-04T10:41:57.068Z,11.07
2018-02-04T10:44:28.524Z,10.98
2018-02-04T10:46:59.089Z,10.77
2018-02-04T10:49:29.531Z,11.73
2018-02-04T10:52:01.374Z,12.85
2018-02-04T10:54:32.975Z,11.76
2018-02-04T10:57:03.658Z,10.68
2018-02-04T10:59:34.519Z,10.30
2018-02-04T11:02:05.754Z,11.84
2018-02-04T11:04:36.454Z,10.65
2018-02-04T11:07:06.834Z,10.32
2018-02-04T11:09:38.635Z,10.32
2018-02-04T11:12:10.075Z,9.94
2018-02-04T11:14:39.508Z,10.24
2018-02-04T11:17:10.120Z,9.35
2018-02-04T11:19:40.352Z,10.10
2018-02-04T11:22:10.199Z,8.93
2018-02-04T11:24:41.759Z,9.32
2018-02-04T11:27:17.153Z,9.39
2018-02-04T11:29:46.251Z,9.90
2018-02-04T11:32:21.274Z,18.73
2018-02-04T11:34:50.387Z,12.23
2018-02-04T11:37:19.452Z,8.52
2018-02-04T11:39:48.546Z,9.50
2018-02-04T11:42:18.927Z,9.27
2018-02-04T11:44:49.766Z,24.63
2018-02-04T11:47:20.270Z,8.90
2018-02-04T11:49:50.797Z,8.50
2018-02-04T11:52:21.843Z,8.70
2018-02-04T11:54:52.515Z,10.05
2018-02-04T11:57:23.198Z,9.10
2018-02-04T11:59:54.548Z,8.20
2018-02-04T12:02:25.827Z,8.68
2018-02-04T12:04:56.654Z,8.80
2018-02-04T12:07:27.527Z,10.70
2018-02-04T12:09:58.391Z,10.73
2018-02-04T12:12:29.197Z,12.32
2018-02-04T12:15:00.707Z,18.28
2018-02-04T12:17:31.631Z,18.52
2018-02-04T12:20:02.476Z,20.08
2018-02-04T12:22:33.894Z,15.08
2018-02-04T12:25:04.384Z,13.52
2018-02-04T12:27:34.691Z,13.88
2018-02-04T12:30:05.821Z,12.18
2018-02-04T12:32:36.346Z,11.94
2018-02-04T12:35:06.887Z,12.73
2018-02-04T12:37:37.770Z,11.98
2018-02-04T12:40:08.263Z,13.08
2018-02-04T12:42:43.159Z,12.32
2018-02-04T12:45:12.250Z,13.37
2018-02-04T12:47:41.348Z,12.05
2018-02-04T12:50:11.316Z,14.18
2018-02-04T12:52:41.115Z,18.42
2018-02-04T12:55:12.585Z,14.80
2018-02-04T12:57:43.132Z,18.62
2018-02-04T13:00:13.355Z,33.90
2018-02-04T13:02:43.753Z,29.30
2018-02-04T13:05:14.323Z,24.24
2018-02-04T13:07:45.891Z,22.45
2018-02-04T13:10:16.429Z,25.74
2018-02-04T13:12:49.304Z,24.72
2018-02-04T13:15:18.447Z,19.73
2018-02-04T13:17:48.762Z,24.80
2018-02-04T13:20:19.341Z,19.36
2018-02-04T13:22:49.760Z,21.50
2018-02-04T13:25:20.344Z,18.96
2018-02-04T13:27:50.752Z,21.58
2018-02-04T13:30:21.331Z,60.26
2018-02-04T13:32:51.687Z,26.55
2018-02-04T13:35:21.721Z,19.70
2018-02-04T13:37:52.545Z,21.90
2018-02-04T13:40:23.471Z,15.80
2018-02-04T13:42:54.797Z,25.74
2018-02-04T13:45:25.391Z,29.22
2018-02-04T13:47:55.703Z,17.25
2018-02-04T13:50:26.613Z,15.82
2018-02-04T13:52:56.979Z,18.40
2018-02-04T13:55:27.360Z,26.23
2018-02-04T13:57:58.152Z,17.48
2018-02-04T14:00:29.063Z,17.33
2018-02-04T14:03:00.304Z,20.26
2018-02-04T14:05:31.010Z,19.48
2018-02-04T14:08:02.292Z,21.02
2018-02-04T14:10:33.116Z,17.25
2018-02-04T14:13:04.452Z,16.00
2018-02-04T14:15:35.070Z,20.50
2018-02-04T14:18:05.965Z,19.60
2018-02-04T14:20:37.764Z,16.24
2018-02-04T14:23:09.200Z,17.00
2018-02-04T14:25:40.779Z,18.06
2018-02-04T14:28:11.599Z,19.85
2018-02-04T14:30:42.475Z,19.23
2018-02-04T14:33:13.319Z,19.70
2018-02-04T14:35:44.788Z,30.72
2018-02-04T14:38:15.621Z,33.55
2018-02-04T14:40:47.251Z,26.35
2018-02-04T14:43:19.007Z,18.90
2018-02-04T14:45:49.354Z,19.84
2018-02-04T14:48:19.879Z,20.20
2018-02-04T14:50:50.751Z,18.58
2018-02-04T14:53:22.590Z,19.66
2018-02-04T14:55:53.947Z,17.76
2018-02-04T14:58:24.329Z,32.78
2018-02-04T15:00:54.666Z,22.88
2018-02-04T15:03:25.188Z,22.36
2018-02-04T15:05:56.983Z,20.22
2018-02-04T15:08:27.271Z,20.34
2018-02-04T15:10:57.764Z,25.92
2018-02-04T15:13:28.902Z,25.95
2018-02-04T15:15:59.910Z,23.85
2018-02-04T15:18:30.771Z,19.80
2018-02-04T15:21:01.081Z,21.65
2018-02-04T15:23:31.460Z,23.85
2018-02-04T15:26:01.541Z,19.85
2018-02-04T15:28:32.120Z,19.90
2018-02-04T15:31:03.051Z,21.08
2018-02-04T15:33:33.945Z,19.25
2018-02-04T15:36:05.100Z,19.54
2018-02-04T15:38:36.025Z,18.85
2018-02-04T15:41:08.317Z,21.34
2018-02-04T15:43:39.736Z,41.84
2018-02-04T15:46:10.635Z,55.44
2018-02-04T15:48:41.113Z,34.12
2018-02-04T15:51:11.830Z,23.73
2018-02-04T15:53:42.683Z,22.45
2018-02-04T15:56:13.765Z,21.55
2018-02-04T15:58:44.618Z,22.27
2018-02-04T16:01:15.223Z,21.88
2018-02-04T16:03:45.833Z,24.73
2018-02-04T16:06:16.461Z,22.40
2018-02-04T16:08:46.768Z,25.50
2018-02-04T16:11:17.680Z,22.95
2018-02-04T16:13:48.548Z,41.88
2018-02-04T16:16:19.470Z,95.85
2018-02-04T16:18:50.357Z,76.60
2018-02-04T16:21:21.756Z,31.62
2018-02-04T16:23:52.366Z,39.13
2018-02-04T16:26:23.771Z,39.02
2018-02-04T16:28:54.639Z,34.85
2018-02-04T16:31:25.498Z,51.83
2018-02-04T16:33:56.360Z,49.55
2018-02-04T16:36:27.723Z,43.70
2018-02-04T16:38:58.561Z,65.57
2018-02-04T16:41:29.407Z,35.82
2018-02-04T16:43:59.668Z,28.10
2018-02-04T16:46:30.494Z,29.50
2018-02-04T16:49:01.343Z,28.90
2018-02-04T16:51:32.711Z,26.22
2018-02-04T16:54:03.388Z,28.05
2018-02-04T16:56:34.567Z,30.92
2018-02-04T16:59:04.839Z,28.25
2018-02-04T17:01:35.710Z,26.77
2018-02-04T17:04:06.553Z,27.37
2018-02-04T17:06:37.608Z,27.67
2018-02-04T17:09:08.759Z,28.92
2018-02-04T17:11:39.716Z,28.00
2018-02-04T17:14:10.539Z,28.87
2018-02-04T17:16:41.481Z,29.80
2018-02-04T17:19:12.367Z,31.15
2018-02-04T17:21:43.903Z,32.96
2018-02-04T17:24:14.651Z,37.45
2018-02-04T17:26:45.640Z,33.00
2018-02-04T17:29:15.507Z,30.02
2018-02-04T17:31:46.158Z,30.92
2018-02-04T17:34:17.667Z,28.04
2018-02-04T17:36:48.608Z,31.20
2018-02-04T17:39:19.328Z,31.50
2018-02-04T17:41:50.612Z,31.54
2018-02-04T17:44:21.323Z,30.05
2018-02-04T17:46:52.806Z,31.06
2018-02-04T17:49:23.310Z,34.38
2018-02-04T17:51:53.934Z,35.56
2018-02-04T17:54:24.876Z,38.10
2018-02-04T17:56:55.639Z,39.67
2018-02-04T17:59:26.778Z,56.03
2018-02-04T18:01:57.384Z,63.10
2018-02-04T18:04:27.770Z,68.32
2018-02-04T18:06:58.351Z,70.40
2018-02-04T18:09:28.048Z,60.05
2018-02-04T18:11:58.584Z,50.20
2018-02-04T18:14:29.405Z,45.12
2018-02-04T18:17:00.848Z,55.84
2018-02-04T18:19:31.723Z,76.72
2018-02-04T18:22:02.689Z,88.47
2018-02-04T18:24:33.560Z,109.03
2018-02-04T18:27:04.536Z,73.37
2018-02-04T18:29:35.414Z,64.95
2018-02-04T18:32:06.812Z,53.72
2018-02-04T18:34:37.326Z,53.92
2018-02-04T18:37:07.799Z,55.97
2018-02-04T18:39:38.653Z,58.40
2018-02-04T18:42:09.685Z,58.60
2018-02-04T18:44:40.530Z,61.13
2018-02-04T18:47:11.445Z,58.58
2018-02-04T18:49:41.987Z,56.42
2018-02-04T18:52:12.830Z,55.22
2018-02-04T18:54:43.696Z,46.55
2018-02-04T18:57:14.730Z,55.08
2018-02-04T18:59:45.623Z,60.22
2018-02-04T19:02:16.206Z,64.40
2018-02-04T19:04:46.792Z,58.35
2018-02-04T19:07:17.860Z,82.10
2018-02-04T19:09:48.756Z,85.28
2018-02-04T19:12:19.692Z,76.93
2018-02-04T19:14:50.600Z,93.20
2018-02-04T19:17:21.524Z,90.03
2018-02-04T19:19:52.556Z,86.75
2018-02-04T19:22:23.501Z,95.03
2018-02-04T19:24:54.397Z,82.85
2018-02-04T19:27:25.791Z,77.26
2018-02-04T19:29:56.708Z,74.47
2018-02-04T19:32:27.638Z,66.60
2018-02-04T19:34:58.499Z,73.62
2018-02-04T19:37:29.489Z,103.55
2018-02-04T19:40:00.403Z,92.95
2018-02-04T19:42:32.047Z,66.48
2018-02-04T19:45:02.906Z,72.00
2018-02-04T19:47:33.923Z,81.28
2018-02-04T19:50:04.773Z,76.18
2018-02-04T19:52:37.849Z,72.12
2018-02-04T19:55:07.217Z,58.60
2018-02-04T19:57:36.428Z,50.57
2018-02-04T20:00:06.555Z,44.97
2018-02-04T20:02:38.145Z,44.63
2018-02-04T20:05:08.364Z,49.60
2018-02-04T20:07:38.991Z,48.80
2018-02-04T20:10:09.791Z,50.50
2018-02-04T20:12:40.897Z,48.25
2018-02-04T20:15:11.879Z,47.17
2018-02-04T20:17:42.917Z,44.85
2018-02-04T20:20:13.844Z,44.40
2018-02-04T20:22:44.789Z,40.38
2018-02-04T20:25:15.683Z,48.45
2018-02-04T20:27:46.657Z,64.00
2018-02-04T20:30:17.510Z,56.85
2018-02-04T20:32:59.508Z,50.85
2018-02-04T20:35:28.754Z,44.30
2018-02-04T20:37:57.935Z,44.45
2018-02-04T20:40:27.226Z,42.65
2018-02-04T20:42:56.332Z,43.33
2018-02-04T20:45:25.627Z,48.10
2018-02-04T20:47:54.865Z,58.07
2018-02-04T20:50:24.392Z,61.55
2018-02-04T20:52:54.771Z,56.85
2018-02-04T20:55:25.623Z,51.20
2018-02-04T20:57:56.509Z,42.30
2018-02-04T21:00:27.428Z,38.55
2018-02-04T21:02:57.850Z,39.42
2018-02-04T21:05:28.660Z,41.15
2018-02-04T21:07:58.935Z,39.67
2018-02-04T21:10:29.114Z,37.45
2018-02-04T21:12:59.951Z,38.40
2018-02-04T21:15:30.985Z,40.44
2018-02-04T21:18:02.292Z,43.52
2018-02-04T21:20:32.983Z,48.95
2018-02-04T21:23:04.275Z,53.52
2018-02-04T21:25:35.708Z,51.92
2018-02-04T21:28:06.626Z,50.90
2018-02-04T21:30:37.452Z,45.97
2018-02-04T21:33:08.730Z,51.24
2018-02-04T21:35:39.607Z,46.45
2018-02-04T21:38:10.535Z,45.47
2018-02-04T21:40:41.431Z,45.03
2018-02-04T21:43:12.454Z,44.20
2018-02-04T21:45:43.783Z,42.84
2018-02-04T21:48:14.683Z,49.88
2018-02-04T21:50:45.175Z,39.00
2018-02-04T21:53:15.824Z,36.45
2018-02-04T21:55:46.655Z,46.90
2018-02-04T21:58:17.537Z,65.72
2018-02-04T22:00:48.412Z,55.17
2018-02-04T22:03:19.740Z,38.54
2018-02-04T22:05:50.647Z,86.97
2018-02-04T22:08:21.588Z,127.03
2018-02-04T22:10:52.454Z,72.57
2018-02-04T22:13:23.439Z,58.48
2018-02-04T22:15:53.745Z,55.67
2018-02-04T22:18:24.646Z,63.30
2018-02-04T22:20:55.476Z,57.30
2018-02-04T22:23:27.208Z,47.18
2018-02-04T22:25:57.171Z,40.88
2018-02-04T22:28:28.763Z,45.86
2018-02-04T22:30:59.590Z,49.00
2018-02-04T22:33:30.148Z,51.18
2018-02-04T22:36:00.739Z,51.67
2018-02-04T22:38:31.672Z,51.37
2018-02-04T22:41:01.975Z,47.40
2018-02-04T22:43:31.736Z,42.50
2018-02-04T22:46:03.284Z,50.92
2018-02-04T22:48:34.253Z,52.88
2018-02-04T22:51:05.013Z,39.60
2018-02-04T22:53:36.426Z,41.50
2018-02-04T22:56:06.960Z,45.20
2018-02-04T22:58:38.444Z,62.96
2018-02-04T23:01:08.376Z,56.63
2018-02-04T23:03:40.022Z,47.84
2018-02-04T23:06:11.323Z,44.54
2018-02-04T23:08:42.181Z,90.25
2018-02-04T23:11:12.911Z,76.53
2018-02-04T23:13:44.267Z,49.16
2018-02-04T23:16:14.996Z,42.88
2018-02-04T23:18:46.298Z,43.16
2018-02-04T23:21:16.785Z,39.38
2018-02-04T23:23:48.454Z,42.52
2018-02-04T23:26:23.255Z,44.14
2018-02-04T23:28:52.735Z,37.35
2018-02-04T23:31:22.191Z,35.90
2018-02-04T23:33:52.930Z,46.70
2018-02-04T23:36:26.158Z,45.08
2018-02-04T23:38:55.508Z,39.03
2018-02-04T23:41:25.035Z,39.17
2018-02-04T23:43:56.435Z,45.76
2018-02-04T23:46:26.739Z,40.42
2018-02-04T23:48:57.281Z,40.46
2018-02-04T23:51:27.667Z,44.92
2018-02-04T23:53:58.587Z,48.63
2018-02-04T23:56:29.072Z,41.70
2018-02-04T23:58:59.860Z,39.83
